This is the latest recevied weather packets stored in our database for station/object WD7CGF. If no packets are shown the sender has not sent any weather packets the latest 1 day(s).
| Time | Temp. | Humidity | Pressure | Rain* | Wind** | Luminosity | Snow |
|---|---|---|---|---|---|---|---|
| 1777997304 | 20° C | 59% | 1011.4 hPa | 0 mm | 0.45 m/s, 161° | - | - |
| 1777996715 | 19.44° C | 59% | 1011.4 hPa | 0 mm | 0.89 m/s, 111° | - | - |
| 1777996112 | 18.89° C | 60% | 1011.4 hPa | 0 mm | 0.45 m/s, 82° | - | - |
| 1777995502 | 19.44° C | 59% | 1011.4 hPa | 0 mm | 0.89 m/s, 103° | - | - |
| 1777994911 | 19.44° C | 59% | 1011.3 hPa | 0 mm | 0.45 m/s, 119° | - | - |
| 1777994321 | 18.33° C | 61% | 1011.3 hPa | 0 mm | 0 m/s | - | - |
| 1777993710 | 17.78° C | 63% | 1011.1 hPa | 0 mm | 0 m/s | - | - |
| 1777993121 | 17.22° C | 62% | 1011.1 hPa | 0 mm | 0.45 m/s, 69° | - | - |
| 1777992512 | 17.22° C | 63% | 1011.1 hPa | 0 mm | 0.45 m/s, 142° | - | - |
| 1777991907 | 16.67° C | 64% | 1011.2 hPa | 0 mm | 0 m/s | - | - |
| 1777991302 | 16.11° C | 65% | 1011 hPa | 0 mm | 0 m/s | - | - |
| 1777990714 | 15.56° C | 68% | 1011 hPa | 0 mm | 0 m/s | - | - |
| 1777990107 | 15° C | 71% | 1011 hPa | 0 mm | 0 m/s | - | - |
| 1777989520 | 13.89° C | 75% | 1011.1 hPa | 0 mm | 0 m/s | - | - |
| 1777988913 | 12.78° C | 78% | 1011.1 hPa | 0 mm | 0 m/s | - | - |
| 1777987717 | 12.22° C | 79% | 1010.1 hPa | 0 mm | 0 m/s | - | - |
| 1777987109 | 12.22° C | 79% | 1010.1 hPa | 0 mm | 0 m/s | - | - |
| 1777986506 | 11.67° C | 78% | 1010.5 hPa | 0 mm | 0 m/s | - | - |
| 1777985919 | 12.22° C | 77% | 1010.5 hPa | 0 mm | 0 m/s | - | - |
| 1777985309 | 12.22° C | 77% | 1010.5 hPa | 0 mm | 0 m/s | - | - |
| 1777984722 | 12.22° C | 76% | 1010.3 hPa | 0 mm | 0 m/s | - | - |
| 1777984112 | 12.22° C | 76% | 1010 hPa | 0 mm | 0 m/s | - | - |
| 1777983504 | 12.22° C | 75% | 1010 hPa | 0 mm | 0 m/s | - | - |
| 1777982917 | 12.78° C | 73% | 1009.8 hPa | 0 mm | 0 m/s | - | - |
| 1777982308 | 12.78° C | 72% | 1009.6 hPa | 0 mm | 0 m/s | - | - |
* Rain latest hour (hover to see other rain measurements)
** Current wind speed in m/s (hover to see current wind gust speed)